sensor_id;sensor_type;location;lat;lon;timestamp;P1;durP1;ratioP1;P2;durP2;ratioP2
43988;SDS011;54163;51.386;7.178;2022-07-18T00:00:08;624.20;;;166.37;;
43988;SDS011;54163;51.386;7.178;2022-07-18T00:02:36;752.30;;;233.67;;
43988;SDS011;54163;51.386;7.178;2022-07-18T00:05:04;683.27;;;173.63;;
43988;SDS011;54163;51.386;7.178;2022-07-18T00:07:32;581.20;;;147.13;;
43988;SDS011;54163;51.386;7.178;2022-07-18T00:10:00;627.07;;;159.27;;
43988;SDS011;54163;51.386;7.178;2022-07-18T00:12:28;769.43;;;250.20;;
43988;SDS011;54163;51.386;7.178;2022-07-18T00:14:55;649.97;;;167.03;;
43988;SDS011;54163;51.386;7.178;2022-07-18T00:17:22;747.10;;;230.00;;
43988;SDS011;54163;51.386;7.178;2022-07-18T00:19:49;616.73;;;147.93;;
43988;SDS011;54163;51.386;7.178;2022-07-18T00:22:16;646.43;;;150.43;;
43988;SDS011;54163;51.386;7.178;2022-07-18T00:24:43;723.57;;;214.90;;
43988;SDS011;54163;51.386;7.178;2022-07-18T00:27:10;712.97;;;202.60;;
43988;SDS011;54163;51.386;7.178;2022-07-18T00:29:39;764.73;;;231.03;;
43988;SDS011;54163;51.386;7.178;2022-07-18T00:32:06;752.27;;;235.73;;
43988;SDS011;54163;51.386;7.178;2022-07-18T00:34:34;668.07;;;158.00;;
43988;SDS011;54163;51.386;7.178;2022-07-18T00:37:01;681.07;;;168.10;;
43988;SDS011;54163;51.386;7.178;2022-07-18T00:39:29;571.07;;;123.53;;
43988;SDS011;54163;51.386;7.178;2022-07-18T00:41:57;714.27;;;194.90;;
43988;SDS011;54163;51.386;7.178;2022-07-18T00:44:25;743.80;;;215.30;;
43988;SDS011;54163;51.386;7.178;2022-07-18T00:46:56;711.33;;;194.93;;
43988;SDS011;54163;51.386;7.178;2022-07-18T00:49:24;672.60;;;157.33;;
43988;SDS011;54163;51.386;7.178;2022-07-18T00:51:51;595.90;;;133.57;;
43988;SDS011;54163;51.386;7.178;2022-07-18T00:54:19;713.80;;;197.17;;
43988;SDS011;54163;51.386;7.178;2022-07-18T00:56:47;678.93;;;169.97;;
43988;SDS011;54163;51.386;7.178;2022-07-18T00:59:15;603.00;;;128.80;;
43988;SDS011;54163;51.386;7.178;2022-07-18T01:01:43;664.13;;;151.57;;
43988;SDS011;54163;51.386;7.178;2022-07-18T01:04:13;604.70;;;131.97;;
43988;SDS011;54163;51.386;7.178;2022-07-18T01:06:41;580.47;;;119.67;;
43988;SDS011;54163;51.386;7.178;2022-07-18T01:09:08;601.13;;;129.17;;
43988;SDS011;54163;51.386;7.178;2022-07-18T01:11:37;659.67;;;144.80;;
43988;SDS011;54163;51.386;7.178;2022-07-18T01:14:05;672.43;;;153.63;;
43988;SDS011;54163;51.386;7.178;2022-07-18T01:16:33;668.80;;;150.10;;
43988;SDS011;54163;51.386;7.178;2022-07-18T01:19:00;665.57;;;155.80;;
43988;SDS011;54163;51.386;7.178;2022-07-18T01:21:30;701.93;;;181.50;;
43988;SDS011;54163;51.386;7.178;2022-07-18T01:23:57;559.07;;;118.17;;
43988;SDS011;54163;51.386;7.178;2022-07-18T01:26:24;645.70;;;125.20;;
43988;SDS011;54163;51.386;7.178;2022-07-18T01:28:51;667.03;;;158.47;;
43988;SDS011;54163;51.386;7.178;2022-07-18T01:31:18;663.63;;;141.87;;
43988;SDS011;54163;51.386;7.178;2022-07-18T01:33:45;673.53;;;154.50;;
43988;SDS011;54163;51.386;7.178;2022-07-18T01:36:12;658.93;;;138.03;;
43988;SDS011;54163;51.386;7.178;2022-07-18T01:38:41;654.93;;;128.20;;
43988;SDS011;54163;51.386;7.178;2022-07-18T01:41:08;604.50;;;123.73;;
43988;SDS011;54163;51.386;7.178;2022-07-18T01:43:39;650.07;;;132.20;;
43988;SDS011;54163;51.386;7.178;2022-07-18T01:46:07;515.73;;;109.33;;
43988;SDS011;54163;51.386;7.178;2022-07-18T01:48:36;573.13;;;108.23;;
43988;SDS011;54163;51.386;7.178;2022-07-18T01:51:03;706.00;;;165.20;;
43988;SDS011;54163;51.386;7.178;2022-07-18T01:53:35;647.07;;;132.90;;
43988;SDS011;54163;51.386;7.178;2022-07-18T01:56:04;719.30;;;177.30;;
43988;SDS011;54163;51.386;7.178;2022-07-18T01:58:32;652.13;;;130.93;;
43988;SDS011;54163;51.386;7.178;2022-07-18T02:00:59;666.73;;;147.30;;
43988;SDS011;54163;51.386;7.178;2022-07-18T02:03:26;659.33;;;145.20;;
43988;SDS011;54163;51.386;7.178;2022-07-18T02:05:53;649.37;;;131.87;;
43988;SDS011;54163;51.386;7.178;2022-07-18T02:08:20;551.47;;;108.00;;
43988;SDS011;54163;51.386;7.178;2022-07-18T02:10:47;570.50;;;103.67;;
43988;SDS011;54163;51.386;7.178;2022-07-18T02:13:16;568.20;;;105.40;;
43988;SDS011;54163;51.386;7.178;2022-07-18T02:15:45;644.83;;;124.83;;
43988;SDS011;54163;51.386;7.178;2022-07-18T02:18:12;644.27;;;124.33;;
43988;SDS011;54163;51.386;7.178;2022-07-18T02:20:40;569.20;;;106.13;;
43988;SDS011;54163;51.386;7.178;2022-07-18T02:23:07;567.97;;;103.43;;
43988;SDS011;54163;51.386;7.178;2022-07-18T02:25:35;575.23;;;110.43;;
43988;SDS011;54163;51.386;7.178;2022-07-18T02:28:02;650.60;;;128.37;;
43988;SDS011;54163;51.386;7.178;2022-07-18T02:30:31;654.30;;;136.60;;
43988;SDS011;54163;51.386;7.178;2022-07-18T02:32:58;590.00;;;113.00;;
43988;SDS011;54163;51.386;7.178;2022-07-18T02:35:25;542.57;;;100.60;;
43988;SDS011;54163;51.386;7.178;2022-07-18T02:37:52;550.80;;;101.40;;
43988;SDS011;54163;51.386;7.178;2022-07-18T02:40:19;566.90;;;99.80;;
43988;SDS011;54163;51.386;7.178;2022-07-18T02:42:46;540.27;;;96.90;;
43988;SDS011;54163;51.386;7.178;2022-07-18T02:45:13;545.67;;;101.77;;
43988;SDS011;54163;51.386;7.178;2022-07-18T02:47:42;660.30;;;138.90;;
43988;SDS011;54163;51.386;7.178;2022-07-18T02:50:09;541.07;;;98.70;;
43988;SDS011;54163;51.386;7.178;2022-07-18T02:52:36;646.50;;;125.80;;
43988;SDS011;54163;51.386;7.178;2022-07-18T02:55:06;554.97;;;111.57;;
43988;SDS011;54163;51.386;7.178;2022-07-18T02:57:34;638.40;;;121.33;;
43988;SDS011;54163;51.386;7.178;2022-07-18T03:00:01;658.30;;;140.30;;
43988;SDS011;54163;51.386;7.178;2022-07-18T03:02:28;656.10;;;136.03;;
43988;SDS011;54163;51.386;7.178;2022-07-18T03:04:56;650.50;;;131.43;;
43988;SDS011;54163;51.386;7.178;2022-07-18T03:07:23;567.73;;;101.67;;
43988;SDS011;54163;51.386;7.178;2022-07-18T03:09:50;638.53;;;120.63;;
43988;SDS011;54163;51.386;7.178;2022-07-18T03:12:17;564.83;;;103.53;;
43988;SDS011;54163;51.386;7.178;2022-07-18T03:14:45;647.97;;;124.17;;
43988;SDS011;54163;51.386;7.178;2022-07-18T03:17:12;544.90;;;99.77;;
43988;SDS011;54163;51.386;7.178;2022-07-18T03:19:40;657.97;;;138.03;;
43988;SDS011;54163;51.386;7.178;2022-07-18T03:22:08;636.23;;;121.70;;
43988;SDS011;54163;51.386;7.178;2022-07-18T03:24:35;544.27;;;101.00;;
43988;SDS011;54163;51.386;7.178;2022-07-18T03:27:03;639.27;;;118.87;;
43988;SDS011;54163;51.386;7.178;2022-07-18T03:29:30;548.63;;;103.60;;
43988;SDS011;54163;51.386;7.178;2022-07-18T03:31:57;645.57;;;124.30;;
43988;SDS011;54163;51.386;7.178;2022-07-18T03:34:24;571.07;;;104.33;;
43988;SDS011;54163;51.386;7.178;2022-07-18T03:36:50;652.73;;;127.33;;
43988;SDS011;54163;51.386;7.178;2022-07-18T03:39:19;649.53;;;129.43;;
43988;SDS011;54163;51.386;7.178;2022-07-18T03:41:46;556.40;;;111.23;;
43988;SDS011;54163;51.386;7.178;2022-07-18T03:44:13;573.60;;;104.60;;
43988;SDS011;54163;51.386;7.178;2022-07-18T03:46:40;632.70;;;114.57;;
43988;SDS011;54163;51.386;7.178;2022-07-18T03:49:07;634.20;;;122.50;;
43988;SDS011;54163;51.386;7.178;2022-07-18T03:51:34;638.47;;;121.10;;
43988;SDS011;54163;51.386;7.178;2022-07-18T03:54:01;647.33;;;126.87;;
43988;SDS011;54163;51.386;7.178;2022-07-18T03:56:30;647.70;;;123.80;;
43988;SDS011;54163;51.386;7.178;2022-07-18T03:58:57;643.03;;;124.40;;
43988;SDS011;54163;51.386;7.178;2022-07-18T04:01:24;643.90;;;121.23;;
43988;SDS011;54163;51.386;7.178;2022-07-18T04:03:51;640.97;;;119.07;;
43988;SDS011;54163;51.386;7.178;2022-07-18T04:06:18;546.43;;;103.33;;
43988;SDS011;54163;51.386;7.178;2022-07-18T04:08:45;542.90;;;97.33;;
43988;SDS011;54163;51.386;7.178;2022-07-18T04:11:12;540.67;;;98.07;;
43988;SDS011;54163;51.386;7.178;2022-07-18T04:13:41;637.40;;;122.00;;
43988;SDS011;54163;51.386;7.178;2022-07-18T04:16:08;630.17;;;126.20;;
43988;SDS011;54163;51.386;7.178;2022-07-18T04:18:35;536.00;;;96.93;;
43988;SDS011;54163;51.386;7.178;2022-07-18T04:21:02;702.10;;;146.73;;
43988;SDS011;54163;51.386;7.178;2022-07-18T04:23:30;570.83;;;100.90;;
43988;SDS011;54163;51.386;7.178;2022-07-18T04:25:57;591.30;;;117.27;;
43988;SDS011;54163;51.386;7.178;2022-07-18T04:28:25;555.53;;;95.97;;
43988;SDS011;54163;51.386;7.178;2022-07-18T04:30:53;623.70;;;112.70;;
43988;SDS011;54163;51.386;7.178;2022-07-18T04:33:20;532.63;;;93.93;;
43988;SDS011;54163;51.386;7.178;2022-07-18T04:35:47;533.40;;;93.37;;
43988;SDS011;54163;51.386;7.178;2022-07-18T04:38:15;538.87;;;98.23;;
43988;SDS011;54163;51.386;7.178;2022-07-18T04:40:42;529.47;;;93.00;;
43988;SDS011;54163;51.386;7.178;2022-07-18T04:43:09;625.13;;;117.43;;
43988;SDS011;54163;51.386;7.178;2022-07-18T04:45:36;611.77;;;111.50;;
43988;SDS011;54163;51.386;7.178;2022-07-18T04:48:05;579.53;;;106.30;;
43988;SDS011;54163;51.386;7.178;2022-07-18T04:50:33;537.57;;;94.73;;
43988;SDS011;54163;51.386;7.178;2022-07-18T04:53:00;580.07;;;108.20;;
43988;SDS011;54163;51.386;7.178;2022-07-18T04:55:27;618.40;;;116.53;;
43988;SDS011;54163;51.386;7.178;2022-07-18T04:57:54;623.10;;;120.53;;
43988;SDS011;54163;51.386;7.178;2022-07-18T05:00:22;537.13;;;97.27;;
43988;SDS011;54163;51.386;7.178;2022-07-18T05:02:51;550.53;;;97.03;;
43988;SDS011;54163;51.386;7.178;2022-07-18T05:05:20;618.03;;;116.63;;
43988;SDS011;54163;51.386;7.178;2022-07-18T05:07:48;610.70;;;113.80;;
43988;SDS011;54163;51.386;7.178;2022-07-18T05:10:16;612.47;;;115.53;;
43988;SDS011;54163;51.386;7.178;2022-07-18T05:12:45;630.53;;;115.73;;
43988;SDS011;54163;51.386;7.178;2022-07-18T05:15:14;644.43;;;124.03;;
43988;SDS011;54163;51.386;7.178;2022-07-18T05:17:43;574.57;;;103.80;;
43988;SDS011;54163;51.386;7.178;2022-07-18T05:20:11;540.17;;;102.77;;
43988;SDS011;54163;51.386;7.178;2022-07-18T05:22:41;536.10;;;98.67;;
43988;SDS011;54163;51.386;7.178;2022-07-18T05:25:09;510.83;;;91.50;;
43988;SDS011;54163;51.386;7.178;2022-07-18T05:27:36;534.50;;;97.07;;
43988;SDS011;54163;51.386;7.178;2022-07-18T05:30:05;610.70;;;113.07;;
43988;SDS011;54163;51.386;7.178;2022-07-18T05:32:34;547.87;;;94.80;;
43988;SDS011;54163;51.386;7.178;2022-07-18T05:35:02;548.20;;;98.83;;
43988;SDS011;54163;51.386;7.178;2022-07-18T05:37:29;529.27;;;96.00;;
43988;SDS011;54163;51.386;7.178;2022-07-18T05:39:57;617.67;;;117.10;;
43988;SDS011;54163;51.386;7.178;2022-07-18T05:42:24;522.63;;;91.17;;
43988;SDS011;54163;51.386;7.178;2022-07-18T05:44:51;614.33;;;117.43;;
43988;SDS011;54163;51.386;7.178;2022-07-18T05:47:18;622.37;;;111.83;;
43988;SDS011;54163;51.386;7.178;2022-07-18T05:49:45;541.73;;;97.90;;
43988;SDS011;54163;51.386;7.178;2022-07-18T05:52:11;626.00;;;120.17;;
43988;SDS011;54163;51.386;7.178;2022-07-18T05:54:38;580.37;;;109.80;;
43988;SDS011;54163;51.386;7.178;2022-07-18T05:57:07;638.87;;;120.30;;
43988;SDS011;54163;51.386;7.178;2022-07-18T05:59:33;542.17;;;102.67;;
43988;SDS011;54163;51.386;7.178;2022-07-18T06:02:00;645.07;;;122.80;;
43988;SDS011;54163;51.386;7.178;2022-07-18T06:04:28;637.93;;;118.93;;
43988;SDS011;54163;51.386;7.178;2022-07-18T06:06:55;636.57;;;119.10;;
43988;SDS011;54163;51.386;7.178;2022-07-18T06:09:22;534.63;;;96.80;;
43988;SDS011;54163;51.386;7.178;2022-07-18T06:11:50;545.77;;;103.50;;
43988;SDS011;54163;51.386;7.178;2022-07-18T06:14:19;629.97;;;125.13;;
43988;SDS011;54163;51.386;7.178;2022-07-18T06:16:46;545.53;;;105.40;;
43988;SDS011;54163;51.386;7.178;2022-07-18T06:19:12;552.17;;;105.97;;
43988;SDS011;54163;51.386;7.178;2022-07-18T06:21:39;641.40;;;124.47;;
43988;SDS011;54163;51.386;7.178;2022-07-18T06:24:06;645.33;;;128.27;;
43988;SDS011;54163;51.386;7.178;2022-07-18T06:26:33;565.57;;;108.03;;
43988;SDS011;54163;51.386;7.178;2022-07-18T06:28:59;652.50;;;134.50;;
43988;SDS011;54163;51.386;7.178;2022-07-18T06:31:28;569.80;;;113.23;;
43988;SDS011;54163;51.386;7.178;2022-07-18T06:33:54;597.90;;;121.60;;
43988;SDS011;54163;51.386;7.178;2022-07-18T06:36:21;651.10;;;134.67;;
43988;SDS011;54163;51.386;7.178;2022-07-18T06:38:49;714.87;;;168.47;;
43988;SDS011;54163;51.386;7.178;2022-07-18T06:41:16;657.30;;;147.80;;
43988;SDS011;54163;51.386;7.178;2022-07-18T06:43:43;654.93;;;140.97;;
43988;SDS011;54163;51.386;7.178;2022-07-18T06:46:10;660.30;;;146.40;;
43988;SDS011;54163;51.386;7.178;2022-07-18T06:48:39;667.47;;;156.67;;
43988;SDS011;54163;51.386;7.178;2022-07-18T06:51:07;526.23;;;119.10;;
43988;SDS011;54163;51.386;7.178;2022-07-18T06:53:34;681.67;;;171.03;;
43988;SDS011;54163;51.386;7.178;2022-07-18T06:56:01;728.93;;;199.63;;
43988;SDS011;54163;51.386;7.178;2022-07-18T06:58:30;613.07;;;132.40;;
43988;SDS011;54163;51.386;7.178;2022-07-18T07:00:58;765.30;;;238.33;;
43988;SDS011;54163;51.386;7.178;2022-07-18T07:03:26;538.07;;;126.97;;
43988;SDS011;54163;51.386;7.178;2022-07-18T07:05:54;682.40;;;178.00;;
43988;SDS011;54163;51.386;7.178;2022-07-18T07:08:21;677.67;;;166.37;;
43988;SDS011;54163;51.386;7.178;2022-07-18T07:10:48;592.97;;;137.20;;
43988;SDS011;54163;51.386;7.178;2022-07-18T07:13:15;613.27;;;146.47;;
43988;SDS011;54163;51.386;7.178;2022-07-18T07:15:42;750.63;;;221.90;;
43988;SDS011;54163;51.386;7.178;2022-07-18T07:18:09;711.30;;;196.00;;
43988;SDS011;54163;51.386;7.178;2022-07-18T07:20:36;682.23;;;148.70;;
43988;SDS011;54163;51.386;7.178;2022-07-18T07:23:04;569.27;;;139.87;;
43988;SDS011;54163;51.386;7.178;2022-07-18T07:25:33;675.90;;;180.03;;
43988;SDS011;54163;51.386;7.178;2022-07-18T07:28:01;744.80;;;222.70;;
43988;SDS011;54163;51.386;7.178;2022-07-18T07:30:29;677.13;;;176.43;;
43988;SDS011;54163;51.386;7.178;2022-07-18T07:32:56;678.30;;;182.50;;
43988;SDS011;54163;51.386;7.178;2022-07-18T07:35:23;731.60;;;215.47;;
43988;SDS011;54163;51.386;7.178;2022-07-18T07:37:50;685.33;;;185.77;;
43988;SDS011;54163;51.386;7.178;2022-07-18T07:40:20;683.60;;;183.53;;
43988;SDS011;54163;51.386;7.178;2022-07-18T07:42:48;729.23;;;228.80;;
43988;SDS011;54163;51.386;7.178;2022-07-18T07:45:15;746.97;;;240.43;;
43988;SDS011;54163;51.386;7.178;2022-07-18T07:47:42;743.90;;;225.07;;
43988;SDS011;54163;51.386;7.178;2022-07-18T07:50:10;780.30;;;264.47;;
43988;SDS011;54163;51.386;7.178;2022-07-18T07:52:38;727.97;;;228.50;;
43988;SDS011;54163;51.386;7.178;2022-07-18T07:55:06;695.30;;;200.53;;
43988;SDS011;54163;51.386;7.178;2022-07-18T07:57:35;668.37;;;187.10;;
43988;SDS011;54163;51.386;7.178;2022-07-18T08:00:03;780.93;;;281.33;;
43988;SDS011;54163;51.386;7.178;2022-07-18T08:02:37;734.30;;;239.53;;
43988;SDS011;54163;51.386;7.178;2022-07-18T08:05:15;759.13;;;264.90;;
43988;SDS011;54163;51.386;7.178;2022-07-18T08:07:42;711.60;;;221.90;;
43988;SDS011;54163;51.386;7.178;2022-07-18T08:10:09;777.50;;;279.73;;
43988;SDS011;54163;51.386;7.178;2022-07-18T08:12:37;773.97;;;272.30;;
43988;SDS011;54163;51.386;7.178;2022-07-18T08:15:05;790.57;;;318.37;;
43988;SDS011;54163;51.386;7.178;2022-07-18T08:17:32;656.10;;;203.87;;
43988;SDS011;54163;51.386;7.178;2022-07-18T08:20:00;810.77;;;355.07;;
43988;SDS011;54163;51.386;7.178;2022-07-18T08:22:27;810.50;;;343.90;;
43988;SDS011;54163;51.386;7.178;2022-07-18T08:24:54;809.10;;;345.87;;
43988;SDS011;54163;51.386;7.178;2022-07-18T08:27:21;794.30;;;328.27;;
43988;SDS011;54163;51.386;7.178;2022-07-18T08:29:49;814.97;;;357.97;;
43988;SDS011;54163;51.386;7.178;2022-07-18T08:32:16;801.27;;;348.30;;
43988;SDS011;54163;51.386;7.178;2022-07-18T08:34:43;789.63;;;315.03;;
43988;SDS011;54163;51.386;7.178;2022-07-18T08:37:10;817.47;;;370.30;;
43988;SDS011;54163;51.386;7.178;2022-07-18T08:39:37;805.87;;;355.87;;
43988;SDS011;54163;51.386;7.178;2022-07-18T08:42:04;816.60;;;373.53;;
43988;SDS011;54163;51.386;7.178;2022-07-18T08:44:33;781.67;;;315.27;;
43988;SDS011;54163;51.386;7.178;2022-07-18T08:47:03;805.50;;;331.10;;
43988;SDS011;54163;51.386;7.178;2022-07-18T08:49:31;806.80;;;346.17;;
43988;SDS011;54163;51.386;7.178;2022-07-18T08:52:01;786.13;;;308.57;;
43988;SDS011;54163;51.386;7.178;2022-07-18T08:54:28;794.17;;;329.57;;
43988;SDS011;54163;51.386;7.178;2022-07-18T08:56:56;774.90;;;311.07;;
43988;SDS011;54163;51.386;7.178;2022-07-18T08:59:23;814.33;;;349.73;;
43988;SDS011;54163;51.386;7.178;2022-07-18T09:01:49;789.57;;;309.47;;
43988;SDS011;54163;51.386;7.178;2022-07-18T09:07:23;781.17;;;294.13;;
43988;SDS011;54163;51.386;7.178;2022-07-18T09:09:51;765.63;;;278.63;;
43988;SDS011;54163;51.386;7.178;2022-07-18T09:12:20;768.57;;;308.90;;
43988;SDS011;54163;51.386;7.178;2022-07-18T09:14:47;786.87;;;320.83;;
43988;SDS011;54163;51.386;7.178;2022-07-18T09:17:15;781.83;;;312.43;;
43988;SDS011;54163;51.386;7.178;2022-07-18T09:19:51;789.17;;;318.17;;
43988;SDS011;54163;51.386;7.178;2022-07-18T09:22:25;768.67;;;286.70;;
43988;SDS011;54163;51.386;7.178;2022-07-18T09:24:57;781.97;;;312.23;;
43988;SDS011;54163;51.386;7.178;2022-07-18T09:27:27;769.90;;;313.97;;
43988;SDS011;54163;51.386;7.178;2022-07-18T09:32:54;782.60;;;300.67;;
43988;SDS011;54163;51.386;7.178;2022-07-18T09:35:32;724.83;;;266.93;;
43988;SDS011;54163;51.386;7.178;2022-07-18T09:38:03;794.97;;;353.33;;
43988;SDS011;54163;51.386;7.178;2022-07-18T09:40:33;791.10;;;316.37;;
43988;SDS011;54163;51.386;7.178;2022-07-18T09:43:02;703.23;;;233.27;;
43988;SDS011;54163;51.386;7.178;2022-07-18T09:45:30;791.53;;;333.17;;
43988;SDS011;54163;51.386;7.178;2022-07-18T09:47:59;791.80;;;359.17;;
43988;SDS011;54163;51.386;7.178;2022-07-18T09:50:28;751.97;;;268.43;;
43988;SDS011;54163;51.386;7.178;2022-07-18T09:52:58;791.13;;;329.20;;
43988;SDS011;54163;51.386;7.178;2022-07-18T09:55:28;801.30;;;355.60;;
43988;SDS011;54163;51.386;7.178;2022-07-18T09:57:56;801.70;;;381.73;;
43988;SDS011;54163;51.386;7.178;2022-07-18T10:00:30;788.97;;;368.70;;
43988;SDS011;54163;51.386;7.178;2022-07-18T10:02:59;809.23;;;357.27;;
43988;SDS011;54163;51.386;7.178;2022-07-18T10:05:27;803.60;;;357.27;;
43988;SDS011;54163;51.386;7.178;2022-07-18T10:07:56;812.17;;;395.13;;
43988;SDS011;54163;51.386;7.178;2022-07-18T10:10:23;822.00;;;408.43;;
43988;SDS011;54163;51.386;7.178;2022-07-18T10:12:56;756.03;;;328.40;;
43988;SDS011;54163;51.386;7.178;2022-07-18T10:15:25;823.00;;;428.07;;
43988;SDS011;54163;51.386;7.178;2022-07-18T10:17:53;824.93;;;433.43;;
43988;SDS011;54163;51.386;7.178;2022-07-18T10:20:31;821.73;;;410.40;;
43988;SDS011;54163;51.386;7.178;2022-07-18T10:23:11;813.27;;;378.97;;
43988;SDS011;54163;51.386;7.178;2022-07-18T10:25:42;804.67;;;370.93;;
43988;SDS011;54163;51.386;7.178;2022-07-18T10:28:11;753.00;;;291.73;;
43988;SDS011;54163;51.386;7.178;2022-07-18T10:30:42;735.90;;;276.90;;
43988;SDS011;54163;51.386;7.178;2022-07-18T10:36:08;810.77;;;406.90;;
43988;SDS011;54163;51.386;7.178;2022-07-18T10:38:38;800.10;;;356.17;;
43988;SDS011;54163;51.386;7.178;2022-07-18T10:41:07;735.47;;;280.20;;
43988;SDS011;54163;51.386;7.178;2022-07-18T10:43:44;801.83;;;402.00;;
43988;SDS011;54163;51.386;7.178;2022-07-18T10:46:12;736.10;;;278.50;;
43988;SDS011;54163;51.386;7.178;2022-07-18T10:48:47;812.07;;;414.27;;
43988;SDS011;54163;51.386;7.178;2022-07-18T10:51:17;790.70;;;396.37;;
43988;SDS011;54163;51.386;7.178;2022-07-18T10:53:55;809.37;;;421.67;;
43988;SDS011;54163;51.386;7.178;2022-07-18T10:59:26;799.00;;;411.97;;
43988;SDS011;54163;51.386;7.178;2022-07-18T11:01:54;812.40;;;393.93;;
43988;SDS011;54163;51.386;7.178;2022-07-18T11:04:22;817.03;;;447.40;;
43988;SDS011;54163;51.386;7.178;2022-07-18T11:06:53;755.67;;;344.90;;
43988;SDS011;54163;51.386;7.178;2022-07-18T11:12:18;742.13;;;292.87;;
43988;SDS011;54163;51.386;7.178;2022-07-18T11:15:08;762.73;;;324.07;;
43988;SDS011;54163;51.386;7.178;2022-07-18T11:17:58;820.70;;;440.43;;
43988;SDS011;54163;51.386;7.178;2022-07-18T11:20:34;741.63;;;292.50;;
43988;SDS011;54163;51.386;7.178;2022-07-18T11:23:03;800.43;;;427.97;;
43988;SDS011;54163;51.386;7.178;2022-07-18T11:25:39;826.70;;;447.80;;
43988;SDS011;54163;51.386;7.178;2022-07-18T11:28:07;775.73;;;347.03;;
43988;SDS011;54163;51.386;7.178;2022-07-18T11:30:36;777.83;;;380.73;;
43988;SDS011;54163;51.386;7.178;2022-07-18T11:33:04;824.90;;;465.67;;
43988;SDS011;54163;51.386;7.178;2022-07-18T11:35:32;754.40;;;323.07;;
43988;SDS011;54163;51.386;7.178;2022-07-18T11:38:03;476.13;;;104.57;;
43988;SDS011;54163;51.386;7.178;2022-07-18T11:40:31;490.70;;;114.77;;
43988;SDS011;54163;51.386;7.178;2022-07-18T11:42:58;550.27;;;127.50;;
43988;SDS011;54163;51.386;7.178;2022-07-18T11:45:25;548.13;;;126.70;;
43988;SDS011;54163;51.386;7.178;2022-07-18T11:47:54;556.10;;;135.63;;
43988;SDS011;54163;51.386;7.178;2022-07-18T11:50:26;461.53;;;102.53;;
43988;SDS011;54163;51.386;7.178;2022-07-18T11:53:01;465.77;;;110.77;;
43988;SDS011;54163;51.386;7.178;2022-07-18T11:55:32;553.07;;;129.93;;
43988;SDS011;54163;51.386;7.178;2022-07-18T11:58:07;564.23;;;144.83;;
43988;SDS011;54163;51.386;7.178;2022-07-18T12:00:35;553.20;;;130.50;;
43988;SDS011;54163;51.386;7.178;2022-07-18T12:03:10;566.57;;;149.00;;
43988;SDS011;54163;51.386;7.178;2022-07-18T12:05:40;483.03;;;113.10;;
43988;SDS011;54163;51.386;7.178;2022-07-18T12:08:25;561.97;;;147.00;;
43988;SDS011;54163;51.386;7.178;2022-07-18T12:11:03;491.47;;;118.30;;
43988;SDS011;54163;51.386;7.178;2022-07-18T12:13:39;554.17;;;131.07;;
43988;SDS011;54163;51.386;7.178;2022-07-18T12:16:24;480.37;;;107.57;;
43988;SDS011;54163;51.386;7.178;2022-07-18T12:18:55;567.37;;;154.27;;
43988;SDS011;54163;51.386;7.178;2022-07-18T12:21:23;541.97;;;139.73;;
43988;SDS011;54163;51.386;7.178;2022-07-18T12:23:50;485.73;;;112.63;;
43988;SDS011;54163;51.386;7.178;2022-07-18T12:26:27;558.43;;;151.53;;
43988;SDS011;54163;51.386;7.178;2022-07-18T12:29:04;427.33;;;122.67;;
43988;SDS011;54163;51.386;7.178;2022-07-18T12:31:37;554.53;;;139.43;;
43988;SDS011;54163;51.386;7.178;2022-07-18T12:34:11;493.20;;;123.33;;
43988;SDS011;54163;51.386;7.178;2022-07-18T12:36:52;556.43;;;138.63;;
43988;SDS011;54163;51.386;7.178;2022-07-18T12:39:29;557.77;;;139.40;;
43988;SDS011;54163;51.386;7.178;2022-07-18T12:41:59;492.33;;;125.30;;
43988;SDS011;54163;51.386;7.178;2022-07-18T12:44:27;490.23;;;118.40;;
43988;SDS011;54163;51.386;7.178;2022-07-18T12:46:55;472.63;;;124.70;;
43988;SDS011;54163;51.386;7.178;2022-07-18T12:49:25;489.17;;;120.43;;
43988;SDS011;54163;51.386;7.178;2022-07-18T12:51:52;492.70;;;127.17;;
43988;SDS011;54163;51.386;7.178;2022-07-18T12:54:19;572.73;;;178.23;;
43988;SDS011;54163;51.386;7.178;2022-07-18T12:56:48;490.10;;;126.93;;
43988;SDS011;54163;51.386;7.178;2022-07-18T12:59:15;578.07;;;180.60;;
43988;SDS011;54163;51.386;7.178;2022-07-18T13:01:42;588.00;;;175.40;;
43988;SDS011;54163;51.386;7.178;2022-07-18T13:04:09;508.43;;;130.43;;
43988;SDS011;54163;51.386;7.178;2022-07-18T13:06:37;491.77;;;130.57;;
43988;SDS011;54163;51.386;7.178;2022-07-18T13:09:04;499.90;;;142.53;;
43988;SDS011;54163;51.386;7.178;2022-07-18T13:11:32;531.73;;;141.40;;
43988;SDS011;54163;51.386;7.178;2022-07-18T13:14:00;555.23;;;171.60;;
43988;SDS011;54163;51.386;7.178;2022-07-18T13:16:27;575.93;;;190.77;;
43988;SDS011;54163;51.386;7.178;2022-07-18T13:18:54;570.13;;;174.43;;
43988;SDS011;54163;51.386;7.178;2022-07-18T13:21:22;573.17;;;168.77;;
43988;SDS011;54163;51.386;7.178;2022-07-18T13:23:50;480.20;;;142.03;;
43988;SDS011;54163;51.386;7.178;2022-07-18T13:26:17;589.40;;;186.40;;
43988;SDS011;54163;51.386;7.178;2022-07-18T13:28:44;579.77;;;198.87;;
43988;SDS011;54163;51.386;7.178;2022-07-18T13:31:12;493.57;;;139.37;;
43988;SDS011;54163;51.386;7.178;2022-07-18T13:33:39;597.90;;;208.20;;
43988;SDS011;54163;51.386;7.178;2022-07-18T13:36:07;494.60;;;146.13;;
43988;SDS011;54163;51.386;7.178;2022-07-18T13:38:34;569.40;;;178.53;;
43988;SDS011;54163;51.386;7.178;2022-07-18T13:41:03;511.67;;;155.77;;
43988;SDS011;54163;51.386;7.178;2022-07-18T13:43:30;591.73;;;212.10;;
43988;SDS011;54163;51.386;7.178;2022-07-18T13:45:58;599.23;;;229.50;;
43988;SDS011;54163;51.386;7.178;2022-07-18T13:48:26;589.90;;;214.70;;
43988;SDS011;54163;51.386;7.178;2022-07-18T13:50:53;584.50;;;205.47;;
43988;SDS011;54163;51.386;7.178;2022-07-18T13:53:20;611.63;;;243.30;;
43988;SDS011;54163;51.386;7.178;2022-07-18T13:55:47;584.93;;;207.00;;
43988;SDS011;54163;51.386;7.178;2022-07-18T13:58:16;578.07;;;207.60;;
43988;SDS011;54163;51.386;7.178;2022-07-18T14:00:43;601.20;;;268.00;;
43988;SDS011;54163;51.386;7.178;2022-07-18T14:03:11;595.00;;;264.30;;
43988;SDS011;54163;51.386;7.178;2022-07-18T14:05:38;617.83;;;307.03;;
43988;SDS011;54163;51.386;7.178;2022-07-18T14:08:05;589.47;;;225.23;;
43988;SDS011;54163;51.386;7.178;2022-07-18T14:10:33;595.43;;;257.47;;
43988;SDS011;54163;51.386;7.178;2022-07-18T14:13:01;621.73;;;299.07;;
43988;SDS011;54163;51.386;7.178;2022-07-18T14:15:30;595.60;;;246.13;;
43988;SDS011;54163;51.386;7.178;2022-07-18T14:17:57;611.23;;;302.13;;
43988;SDS011;54163;51.386;7.178;2022-07-18T14:20:24;614.90;;;288.03;;